Time;durP1;ratioP1;P1;durP2;ratioP2;P2;SDS_P1;SDS_P2;PMS_P1;PMS_P2;Temp;Humidity;BMP_temperature;BMP_pressure;BME280_temperature;BME280_humidity;BME280_pressure;Samples;Min_cycle;Max_cycle;Signal;HPM_P1;HPM_P2
2023/04/30 00:00:34;;;;;;;3.50;2.30;;;20.50;44.30;;;;;;4936928;29;20534;-78
2023/04/30 00:03:03;;;;;;;5.53;2.90;;;20.40;44.30;;;;;;4944235;29;20440;-78
2023/04/30 00:05:31;;;;;;;6.43;2.67;;;20.40;44.30;;;;;;4944936;29;20580;-76
2023/04/30 00:07:59;;;;;;;5.13;2.60;;;20.40;44.50;;;;;;4939836;29;20455;-78
2023/04/30 00:10:27;;;;;;;4.67;2.63;;;20.40;44.40;;;;;;4950055;29;20444;-78
2023/04/30 00:12:55;;;;;;;3.10;2.57;;;20.40;44.60;;;;;;4944277;28;20451;-77
2023/04/30 00:15:24;;;;;;;4.87;2.90;;;20.30;44.60;;;;;;4940515;29;20539;-78
2023/04/30 00:17:54;;;;;;;6.23;2.30;;;20.30;44.70;;;;;;4944980;29;20451;-78
2023/04/30 00:20:22;;;;;;;2.50;1.83;;;20.30;44.80;;;;;;4941460;29;20459;-78
2023/04/30 00:22:49;;;;;;;2.80;2.10;;;20.30;44.80;;;;;;4947328;29;20451;-78
2023/04/30 00:25:17;;;;;;;2.73;2.53;;;20.30;44.90;;;;;;4951814;29;20457;-78
2023/04/30 00:27:45;;;;;;;2.83;2.20;;;20.30;45.00;;;;;;4940128;29;20467;-77
2023/04/30 00:30:13;;;;;;;2.47;2.27;;;20.30;45.00;;;;;;4947596;29;20478;-78
2023/04/30 00:32:41;;;;;;;5.30;2.57;;;20.20;45.00;;;;;;4947768;29;20473;-78
2023/04/30 00:35:11;;;;;;;2.83;2.10;;;20.20;45.10;;;;;;4938002;29;21249;-78
2023/04/30 00:37:39;;;;;;;6.57;2.13;;;20.20;45.10;;;;;;4940863;28;20454;-78
2023/04/30 00:40:08;;;;;;;4.63;2.43;;;20.20;45.20;;;;;;4954897;29;20447;-78
2023/04/30 00:42:36;;;;;;;5.27;2.23;;;20.10;45.20;;;;;;4954789;29;20488;-78
2023/04/30 00:45:06;;;;;;;4.03;2.17;;;20.10;45.30;;;;;;4944782;29;20455;-77
2023/04/30 00:47:35;;;;;;;2.80;2.13;;;20.10;45.40;;;;;;4942274;29;20458;-78
2023/04/30 00:50:03;;;;;;;3.37;2.00;;;20.00;45.40;;;;;;4944840;29;20563;-77
2023/04/30 00:52:33;;;;;;;5.37;2.40;;;20.00;45.40;;;;;;4941660;29;20467;-78
2023/04/30 00:55:01;;;;;;;2.33;2.13;;;20.00;45.50;;;;;;4933030;29;20535;-78
2023/04/30 00:57:29;;;;;;;3.77;2.17;;;20.00;45.60;;;;;;4948345;29;20458;-78
2023/04/30 00:59:57;;;;;;;6.27;2.50;;;20.00;45.70;;;;;;4945337;29;20450;-77
2023/04/30 01:02:25;;;;;;;2.60;2.23;;;19.90;45.60;;;;;;4946806;29;20501;-78
2023/04/30 01:04:53;;;;;;;5.80;2.80;;;19.90;45.60;;;;;;4946762;28;20452;-78
2023/04/30 01:07:21;;;;;;;4.57;2.33;;;19.90;45.70;;;;;;4954562;29;20441;-79
2023/04/30 01:09:50;;;;;;;4.33;2.27;;;19.90;45.80;;;;;;4946461;29;20475;-77
2023/04/30 01:12:21;;;;;;;4.93;2.63;;;19.80;45.70;;;;;;4935738;29;20476;-76
2023/04/30 01:14:53;;;;;;;2.33;2.13;;;19.80;45.90;;;;;;4951641;29;20439;-78
2023/04/30 01:17:23;;;;;;;2.40;2.20;;;19.80;45.90;;;;;;4946643;29;20453;-77
2023/04/30 01:19:51;;;;;;;2.33;2.17;;;19.70;45.90;;;;;;4954402;29;20443;-79
2023/04/30 01:22:29;;;;;;;5.40;2.50;;;19.80;46.10;;;;;;4954502;28;20529;-77
2023/04/30 01:25:07;;;;;;;5.43;2.93;;;19.80;46.00;;;;;;4945547;29;20455;-78
2023/04/30 01:28:05;;;;;;;4.10;3.70;;;19.70;46.10;;;;;;4949440;29;20443;-77
2023/04/30 01:30:33;;;;;;;5.67;3.50;;;19.70;46.20;;;;;;4946860;29;20479;-78
2023/04/30 01:33:01;;;;;;;8.40;4.03;;;19.60;46.20;;;;;;4950263;29;20460;-78
2023/04/30 01:35:44;;;;;;;8.57;4.17;;;19.60;46.20;;;;;;4954169;29;20547;-78
2023/04/30 01:38:19;;;;;;;8.43;4.33;;;19.60;46.30;;;;;;4935155;28;20945;-75
2023/04/30 01:40:50;;;;;;;8.97;5.10;;;19.60;46.40;;;;;;4934967;29;20550;-78
2023/04/30 01:43:22;;;;;;;7.93;4.60;;;19.60;46.40;;;;;;4946213;29;20549;-78
2023/04/30 01:45:58;;;;;;;6.00;4.60;;;19.60;46.40;;;;;;4946135;28;20452;-78
2023/04/30 01:48:31;;;;;;;7.60;5.30;;;19.50;46.50;;;;;;4939663;29;20450;-77
2023/04/30 01:51:04;;;;;;;10.60;5.97;;;19.50;46.60;;;;;;4951549;29;20483;-78
2023/04/30 01:53:39;;;;;;;8.23;5.73;;;19.50;46.60;;;;;;4951027;29;20451;-79
2023/04/30 01:56:09;;;;;;;6.63;5.33;;;19.50;46.70;;;;;;4952719;28;20546;-77
2023/04/30 01:58:39;;;;;;;9.20;6.37;;;19.50;46.50;;;;;;4954147;29;20900;-77
2023/04/30 02:01:07;;;;;;;9.97;5.97;;;19.40;46.80;;;;;;4945888;28;20467;-77
2023/04/30 02:03:35;;;;;;;11.20;5.77;;;19.40;46.90;;;;;;4942637;29;20470;-76
2023/04/30 02:06:04;;;;;;;9.30;6.10;;;19.40;47.00;;;;;;4947230;29;20451;-79
2023/04/30 02:08:32;;;;;;;11.33;5.93;;;19.30;46.90;;;;;;4948757;29;20454;-77
2023/04/30 02:11:00;;;;;;;9.47;5.80;;;19.30;47.10;;;;;;4942456;29;20490;-78
2023/04/30 02:13:28;;;;;;;11.70;6.40;;;19.30;47.10;;;;;;4946781;29;20444;-78
2023/04/30 02:15:57;;;;;;;9.43;6.50;;;19.30;47.00;;;;;;4937626;29;20451;-78
2023/04/30 02:18:24;;;;;;;9.67;6.13;;;19.30;47.10;;;;;;4934786;29;20436;-77
2023/04/30 02:20:52;;;;;;;8.10;5.87;;;19.30;47.00;;;;;;4945285;29;20467;-78
2023/04/30 02:23:21;;;;;;;9.03;5.93;;;19.20;47.10;;;;;;4949708;28;20462;-78
2023/04/30 02:25:48;;;;;;;9.10;5.90;;;19.20;47.30;;;;;;4942351;29;20447;-77
2023/04/30 02:28:16;;;;;;;7.93;5.33;;;19.10;47.20;;;;;;4942906;28;20443;-78
2023/04/30 02:30:44;;;;;;;6.93;5.30;;;19.20;47.20;;;;;;4947106;29;20478;-78
2023/04/30 02:33:13;;;;;;;8.40;5.97;;;19.20;47.30;;;;;;4945799;29;20439;-78
2023/04/30 02:35:41;;;;;;;6.87;4.93;;;19.10;47.40;;;;;;4954305;28;20450;-78
2023/04/30 02:38:09;;;;;;;7.30;5.40;;;19.10;47.40;;;;;;4939722;29;20448;-78
2023/04/30 02:40:37;;;;;;;10.00;5.57;;;19.10;47.40;;;;;;4955661;29;20451;-77
2023/04/30 02:43:05;;;;;;;8.93;5.20;;;19.10;47.40;;;;;;4949360;29;20452;-78
2023/04/30 02:45:33;;;;;;;6.30;4.60;;;19.10;47.60;;;;;;4957093;29;20443;-78
2023/04/30 02:48:00;;;;;;;7.30;5.17;;;19.00;47.50;;;;;;4941582;29;20479;-78
2023/04/30 02:50:30;;;;;;;7.40;5.03;;;19.00;47.50;;;;;;4957356;28;20482;-78
2023/04/30 02:52:58;;;;;;;7.00;5.10;;;19.00;47.50;;;;;;4956524;29;20443;-77
2023/04/30 02:55:26;;;;;;;6.80;4.80;;;19.00;47.50;;;;;;4949566;29;20458;-78
2023/04/30 02:57:53;;;;;;;7.40;4.83;;;18.90;47.70;;;;;;4945423;29;20475;-76
2023/04/30 03:00:21;;;;;;;9.10;4.93;;;18.90;47.70;;;;;;4944867;29;20442;-78
2023/04/30 03:02:49;;;;;;;6.23;4.80;;;18.90;47.80;;;;;;4941299;29;20460;-78
2023/04/30 03:05:17;;;;;;;6.77;4.53;;;18.90;47.80;;;;;;4940828;29;20442;-78
2023/04/30 03:07:46;;;;;;;9.40;4.60;;;18.90;47.90;;;;;;4956276;28;20480;-78
2023/04/30 03:10:15;;;;;;;6.63;4.83;;;18.80;47.70;;;;;;4946144;29;20479;-78
2023/04/30 03:12:43;;;;;;;8.60;3.77;;;18.80;47.90;;;;;;4950871;29;20460;-78
2023/04/30 03:15:11;;;;;;;7.13;4.50;;;18.80;47.80;;;;;;4938687;29;20440;-78
2023/04/30 03:17:39;;;;;;;5.20;4.03;;;18.80;47.90;;;;;;4937710;29;20448;-79
2023/04/30 03:20:08;;;;;;;5.83;4.33;;;18.80;48.00;;;;;;4938027;29;20440;-78
2023/04/30 03:22:35;;;;;;;7.63;4.30;;;18.80;48.00;;;;;;4947407;29;20467;-77
2023/04/30 03:25:05;;;;;;;5.87;3.87;;;18.70;47.90;;;;;;4944767;29;20447;-77
2023/04/30 03:27:33;;;;;;;5.40;4.17;;;18.70;48.10;;;;;;4942812;29;20447;-78
2023/04/30 03:30:01;;;;;;;5.63;4.10;;;18.70;48.10;;;;;;4955609;29;20475;-75
2023/04/30 03:32:28;;;;;;;6.60;4.03;;;18.70;48.10;;;;;;4941691;29;20455;-77
2023/04/30 03:34:56;;;;;;;4.27;3.63;;;18.70;48.10;;;;;;4956232;29;20944;-78
2023/04/30 03:37:24;;;;;;;3.73;3.30;;;18.60;48.20;;;;;;4937297;29;20451;-77
2023/04/30 03:39:52;;;;;;;5.70;3.73;;;18.70;48.20;;;;;;4949106;29;20443;-78
2023/04/30 03:42:22;;;;;;;4.73;3.40;;;18.60;48.20;;;;;;4940229;29;20485;-78
2023/04/30 03:44:51;;;;;;;8.30;3.93;;;18.60;48.10;;;;;;4954907;28;20458;-78
2023/04/30 03:47:19;;;;;;;7.97;3.30;;;18.60;48.20;;;;;;4952595;28;20456;-78
2023/04/30 03:49:53;;;;;;;4.37;3.53;;;18.50;48.30;;;;;;4951115;29;20470;-78
2023/04/30 03:52:22;;;;;;;4.73;3.40;;;18.50;48.20;;;;;;4952767;28;20463;-77
2023/04/30 03:54:51;;;;;;;4.10;3.30;;;18.50;48.20;;;;;;4944747;29;20448;-77
2023/04/30 03:57:18;;;;;;;4.80;3.30;;;18.50;48.50;;;;;;4955425;29;20443;-78
2023/04/30 03:59:49;;;;;;;5.63;3.70;;;18.50;48.40;;;;;;4956032;28;20455;-77
2023/04/30 04:02:17;;;;;;;4.30;3.00;;;18.50;48.40;;;;;;4947821;29;20472;-77
2023/04/30 04:04:46;;;;;;;2.87;2.67;;;18.40;48.50;;;;;;4949476;29;20456;-77
2023/04/30 04:07:14;;;;;;;3.57;3.00;;;18.40;48.50;;;;;;4950565;29;21015;-80
2023/04/30 04:09:42;;;;;;;4.97;3.10;;;18.40;48.50;;;;;;4950153;29;20512;-77
2023/04/30 04:12:10;;;;;;;4.00;2.80;;;18.40;48.50;;;;;;4944882;29;20499;-78
2023/04/30 04:14:38;;;;;;;3.47;3.03;;;18.40;48.50;;;;;;4936687;29;20452;-77
2023/04/30 04:17:08;;;;;;;3.47;3.10;;;18.40;48.40;;;;;;4944486;29;20447;-77
2023/04/30 04:19:36;;;;;;;8.10;3.60;;;18.40;48.40;;;;;;4949180;29;20466;-77
2023/04/30 04:22:04;;;;;;;3.33;3.03;;;18.30;48.50;;;;;;4955433;29;20474;-77
2023/04/30 04:24:32;;;;;;;7.37;2.90;;;18.30;48.40;;;;;;4951229;29;20456;-77
2023/04/30 04:27:01;;;;;;;5.70;2.93;;;18.30;48.60;;;;;;4952062;29;20451;-78
2023/04/30 04:29:30;;;;;;;3.13;2.93;;;18.30;48.80;;;;;;4944223;29;20452;-78
2023/04/30 04:31:59;;;;;;;4.83;3.10;;;18.30;48.60;;;;;;4942162;29;20963;-78
2023/04/30 04:34:28;;;;;;;2.53;2.27;;;18.30;48.70;;;;;;4951525;29;20487;-78
2023/04/30 04:36:57;;;;;;;4.53;2.70;;;18.30;48.60;;;;;;4944192;29;20455;-78
2023/04/30 04:39:25;;;;;;;3.07;2.50;;;18.30;48.70;;;;;;4939426;29;20527;-77
2023/04/30 04:41:54;;;;;;;5.67;2.37;;;18.20;48.80;;;;;;4936181;29;20490;-77
2023/04/30 04:44:22;;;;;;;2.83;2.63;;;18.20;48.80;;;;;;4944110;29;20448;-77
2023/04/30 04:46:52;;;;;;;2.57;2.37;;;18.30;48.80;;;;;;4945799;29;20465;-78
2023/04/30 04:49:20;;;;;;;3.30;2.10;;;18.30;48.80;;;;;;4944731;29;20543;-77
2023/04/30 04:51:50;;;;;;;2.70;2.50;;;18.30;48.80;;;;;;4935964;29;20468;-77
2023/04/30 04:54:18;;;;;;;3.37;2.60;;;18.20;48.60;;;;;;4944357;29;20453;-77
2023/04/30 04:56:47;;;;;;;4.27;2.30;;;18.20;48.90;;;;;;4936830;29;20456;-77
2023/04/30 04:59:15;;;;;;;4.10;2.70;;;18.20;49.00;;;;;;4950112;28;20455;-76
2023/04/30 05:01:43;;;;;;;5.07;2.37;;;18.20;48.90;;;;;;4948708;29;20474;-78
2023/04/30 05:04:12;;;;;;;4.17;2.97;;;18.20;48.90;;;;;;4945535;29;20502;-78
2023/04/30 05:06:41;;;;;;;3.97;2.37;;;18.20;48.90;;;;;;4946681;29;20435;-78
2023/04/30 05:09:10;;;;;;;3.50;2.17;;;18.20;48.90;;;;;;4949385;28;20444;-77
2023/04/30 05:11:40;;;;;;;2.60;2.40;;;18.20;48.90;;;;;;4940197;29;20465;-78
2023/04/30 05:14:08;;;;;;;2.67;2.47;;;18.20;49.00;;;;;;4947824;29;20488;-77
2023/04/30 05:16:35;;;;;;;2.47;2.27;;;18.20;48.70;;;;;;4950039;29;20979;-78
2023/04/30 05:19:03;;;;;;;2.40;2.20;;;18.20;49.00;;;;;;4935787;29;20519;-77
2023/04/30 05:21:31;;;;;;;5.10;2.50;;;18.20;48.80;;;;;;4942205;29;20478;-79
2023/04/30 05:23:59;;;;;;;2.43;2.23;;;18.20;49.00;;;;;;4950747;29;20442;-78
2023/04/30 05:26:29;;;;;;;4.30;2.37;;;18.20;49.10;;;;;;4943146;29;20475;-78
2023/04/30 05:28:56;;;;;;;3.43;2.20;;;18.20;49.10;;;;;;4947541;29;20451;-77
2023/04/30 05:31:24;;;;;;;4.00;2.30;;;18.20;49.00;;;;;;4942938;29;20471;-78
2023/04/30 05:33:52;;;;;;;3.83;2.10;;;18.30;49.10;;;;;;4942219;29;20458;-78
2023/04/30 05:36:20;;;;;;;6.10;2.20;;;18.20;49.20;;;;;;4935009;29;20456;-78
2023/04/30 05:38:48;;;;;;;3.47;2.27;;;18.20;49.20;;;;;;4940282;29;20443;-79
2023/04/30 05:41:16;;;;;;;1.90;1.80;;;18.30;49.20;;;;;;4952200;29;20486;-78
2023/04/30 05:43:45;;;;;;;2.20;2.10;;;18.30;49.20;;;;;;4941126;29;20448;-78
2023/04/30 05:46:12;;;;;;;2.90;2.30;;;18.30;49.10;;;;;;4944016;29;20442;-78
2023/04/30 05:48:40;;;;;;;2.77;2.23;;;18.30;49.20;;;;;;4943153;29;20440;-78
2023/04/30 05:51:09;;;;;;;2.60;2.40;;;18.30;49.10;;;;;;4945471;29;20452;-78
2023/04/30 05:53:37;;;;;;;3.97;2.00;;;18.30;49.10;;;;;;4938990;29;20439;-77
2023/04/30 05:56:05;;;;;;;2.30;2.10;;;18.30;49.00;;;;;;4946036;29;20448;-78
2023/04/30 05:58:33;;;;;;;2.30;2.10;;;18.30;49.20;;;;;;4953631;28;20459;-78
2023/04/30 06:01:03;;;;;;;4.63;2.40;;;18.40;49.30;;;;;;4945913;29;20474;-78
2023/04/30 06:03:31;;;;;;;3.80;2.23;;;18.40;49.20;;;;;;4946510;29;20439;-77
2023/04/30 06:05:59;;;;;;;2.40;2.20;;;18.40;49.20;;;;;;4954028;29;20458;-78
2023/04/30 06:08:28;;;;;;;2.27;2.17;;;18.50;49.20;;;;;;4946157;29;20437;-78
2023/04/30 06:10:56;;;;;;;2.17;1.93;;;18.50;49.20;;;;;;4954793;28;20454;-77
2023/04/30 06:13:24;;;;;;;2.97;2.20;;;18.50;49.00;;;;;;4954613;29;20441;-78
2023/04/30 06:15:52;;;;;;;8.23;2.30;;;18.50;49.20;;;;;;4950287;29;20450;-78
2023/04/30 06:18:22;;;;;;;3.63;2.50;;;18.60;49.30;;;;;;4947504;29;20975;-77
2023/04/30 06:20:50;;;;;;;2.10;2.00;;;18.60;49.20;;;;;;4938593;29;20456;-78
2023/04/30 06:23:17;;;;;;;1.77;1.67;;;18.60;49.20;;;;;;4947147;29;20486;-77
2023/04/30 06:25:45;;;;;;;3.20;1.80;;;18.70;49.40;;;;;;4943788;29;20454;-77
2023/04/30 06:28:13;;;;;;;2.87;2.20;;;18.70;49.10;;;;;;4956350;29;20447;-77
2023/04/30 06:30:41;;;;;;;1.90;1.80;;;18.80;49.10;;;;;;4946188;29;20455;-78
2023/04/30 06:33:09;;;;;;;3.73;1.90;;;18.80;49.20;;;;;;4939165;29;20432;-78
2023/04/30 06:35:39;;;;;;;1.93;1.83;;;18.80;49.20;;;;;;4953829;29;20432;-78
2023/04/30 06:38:07;;;;;;;1.90;1.80;;;18.90;49.20;;;;;;4954362;29;20439;-78
2023/04/30 06:40:35;;;;;;;1.90;1.80;;;18.90;49.40;;;;;;4949663;29;20442;-78
2023/04/30 06:43:03;;;;;;;3.80;1.93;;;18.90;49.20;;;;;;4957267;28;21042;-77
2023/04/30 06:45:31;;;;;;;2.13;1.63;;;19.00;49.30;;;;;;4949467;29;20431;-78
2023/04/30 06:47:59;;;;;;;2.00;1.80;;;19.00;49.30;;;;;;4943939;29;20447;-76
2023/04/30 06:50:27;;;;;;;1.90;1.73;;;19.10;49.50;;;;;;4941321;29;20444;-76
2023/04/30 06:52:56;;;;;;;3.63;2.10;;;19.10;49.50;;;;;;4950965;29;20469;-77
2023/04/30 06:55:25;;;;;;;2.00;1.77;;;19.10;49.20;;;;;;4956222;29;20455;-77
2023/04/30 06:57:53;;;;;;;3.13;1.80;;;19.20;49.50;;;;;;4951679;29;20459;-78
2023/04/30 07:00:21;;;;;;;3.60;1.83;;;19.20;49.60;;;;;;4954624;29;20462;-79
2023/04/30 07:02:50;;;;;;;3.90;2.10;;;19.20;49.60;;;;;;4948932;29;20475;-76
2023/04/30 07:05:19;;;;;;;3.53;1.77;;;19.30;49.70;;;;;;4949641;29;20455;-76
2023/04/30 07:07:48;;;;;;;1.80;1.50;;;19.40;49.60;;;;;;4949786;29;20439;-75
2023/04/30 07:10:17;;;;;;;3.37;1.83;;;19.50;49.80;;;;;;4956231;29;20530;-76
2023/04/30 07:12:45;;;;;;;2.13;1.73;;;19.60;49.60;;;;;;4956241;29;20486;-76
2023/04/30 07:15:13;;;;;;;1.97;1.80;;;19.70;49.60;;;;;;4948136;28;20447;-76
2023/04/30 07:17:41;;;;;;;4.23;2.30;;;19.80;49.60;;;;;;4948647;28;20453;-76
2023/04/30 07:20:12;;;;;;;3.37;1.90;;;19.90;49.50;;;;;;4952272;29;20490;-75
2023/04/30 07:22:40;;;;;;;1.90;1.80;;;20.00;49.50;;;;;;4950481;28;20474;-77
2023/04/30 07:25:08;;;;;;;2.40;1.77;;;20.00;49.30;;;;;;4943040;28;20474;-76
2023/04/30 07:27:38;;;;;;;1.73;1.63;;;20.20;49.60;;;;;;4949334;29;20455;-76
2023/04/30 07:30:09;;;;;;;3.37;1.83;;;20.20;49.40;;;;;;4950637;29;20451;-76
2023/04/30 07:32:36;;;;;;;2.17;1.97;;;20.40;49.40;;;;;;4951735;28;20461;-76
2023/04/30 07:35:05;;;;;;;2.30;2.10;;;20.50;49.40;;;;;;4945244;28;20440;-75
2023/04/30 07:37:33;;;;;;;3.80;1.90;;;20.60;49.30;;;;;;4943995;29;20844;-76
2023/04/30 07:40:03;;;;;;;3.23;1.90;;;20.80;49.40;;;;;;4947191;29;20853;-76
2023/04/30 07:42:30;;;;;;;2.43;2.20;;;20.90;49.20;;;;;;4942477;29;20493;-76
2023/04/30 07:45:03;;;;;;;2.60;2.07;;;21.10;49.20;;;;;;4953200;29;20447;-76
2023/04/30 07:47:30;;;;;;;2.73;2.03;;;21.20;49.00;;;;;;4943103;29;20562;-76
2023/04/30 07:49:58;;;;;;;2.20;1.90;;;21.30;49.00;;;;;;4946954;29;20534;-77
2023/04/30 07:52:26;;;;;;;2.27;2.17;;;21.50;49.00;;;;;;4943625;29;20471;-76
2023/04/30 07:54:54;;;;;;;2.20;1.70;;;21.60;48.90;;;;;;4941737;29;20463;-77
2023/04/30 07:57:22;;;;;;;3.07;1.77;;;21.70;48.90;;;;;;4937655;29;20459;-76
2023/04/30 07:59:50;;;;;;;1.70;1.60;;;21.90;48.80;;;;;;4939348;29;20452;-76
2023/04/30 08:02:21;;;;;;;1.80;1.70;;;22.00;48.90;;;;;;4943668;29;20959;-76
2023/04/30 08:04:49;;;;;;;3.03;1.80;;;22.20;48.80;;;;;;4947424;29;20449;-77
2023/04/30 08:07:17;;;;;;;2.13;1.90;;;22.20;48.60;;;;;;4947795;29;20451;-74
2023/04/30 08:09:45;;;;;;;2.53;1.93;;;22.40;48.60;;;;;;4943796;29;20456;-76
2023/04/30 08:12:13;;;;;;;1.93;1.80;;;22.50;48.50;;;;;;4953720;29;20479;-77
2023/04/30 08:14:41;;;;;;;2.53;2.07;;;22.60;48.50;;;;;;4942475;29;20448;-76
2023/04/30 08:17:09;;;;;;;3.70;1.90;;;22.80;48.40;;;;;;4935758;29;20440;-77
2023/04/30 08:19:38;;;;;;;2.50;2.20;;;23.00;48.40;;;;;;4935369;29;20439;-77
2023/04/30 08:22:06;;;;;;;3.50;2.00;;;23.00;48.00;;;;;;4949577;29;20463;-77
2023/04/30 08:24:33;;;;;;;3.60;1.97;;;23.10;47.80;;;;;;4945713;29;20480;-77
2023/04/30 08:27:02;;;;;;;3.53;2.10;;;23.20;47.80;;;;;;4947391;29;20959;-78
2023/04/30 08:29:30;;;;;;;4.37;1.93;;;23.30;47.90;;;;;;4949584;29;20444;-76
2023/04/30 08:31:58;;;;;;;3.00;2.00;;;23.50;47.90;;;;;;4940400;29;20467;-78
2023/04/30 08:34:26;;;;;;;1.80;1.70;;;23.70;47.90;;;;;;4951780;28;20476;-79
2023/04/30 08:36:56;;;;;;;2.00;1.80;;;24.00;47.70;;;;;;4954426;29;20447;-77
2023/04/30 08:39:24;;;;;;;3.60;1.70;;;24.30;47.40;;;;;;4935114;29;20419;-75
2023/04/30 08:41:55;;;;;;;2.30;1.70;;;24.40;47.20;;;;;;4934313;29;20472;-79
2023/04/30 08:44:23;;;;;;;2.47;2.27;;;24.60;47.10;;;;;;4942546;29;20486;-78
2023/04/30 08:46:52;;;;;;;2.73;1.97;;;24.80;46.90;;;;;;4939668;29;20451;-77
2023/04/30 08:49:19;;;;;;;3.07;1.93;;;25.00;46.60;;;;;;4943700;29;20460;-77
2023/04/30 08:51:50;;;;;;;2.47;1.80;;;25.20;46.50;;;;;;4944930;29;20471;-76
2023/04/30 08:54:19;;;;;;;2.27;2.17;;;25.30;46.10;;;;;;4946577;29;20440;-78
2023/04/30 08:56:47;;;;;;;1.70;1.60;;;25.40;46.10;;;;;;4934993;29;20450;-79
2023/04/30 08:59:15;;;;;;;3.30;2.00;;;25.60;46.10;;;;;;4941574;29;20429;-76
2023/04/30 09:01:43;;;;;;;3.47;1.90;;;25.80;45.90;;;;;;4933584;29;20434;-77
2023/04/30 09:04:11;;;;;;;2.60;2.03;;;26.00;45.80;;;;;;4933744;29;20450;-77
2023/04/30 09:06:39;;;;;;;2.27;1.90;;;26.20;45.60;;;;;;4948123;29;20437;-78
2023/04/30 09:09:12;;;;;;;3.80;2.13;;;26.20;45.20;;;;;;4953541;29;20460;-77
2023/04/30 09:11:41;;;;;;;2.60;2.10;;;26.20;45.20;;;;;;4947403;28;20433;-77
2023/04/30 09:14:09;;;;;;;2.00;1.90;;;26.40;45.30;;;;;;4941121;29;20406;-77
2023/04/30 09:16:56;;;;;;;3.27;2.17;;;26.60;45.20;;;;;;4936301;29;20442;-77
2023/04/30 09:19:25;;;;;;;3.37;2.20;;;26.80;45.10;;;;;;4942647;29;20407;-75
2023/04/30 09:21:52;;;;;;;3.57;2.20;;;27.00;44.90;;;;;;4943389;29;20461;-76
2023/04/30 09:24:21;;;;;;;2.80;2.33;;;27.20;44.70;;;;;;4946275;29;20457;-79
2023/04/30 09:26:50;;;;;;;2.53;2.33;;;27.50;44.50;;;;;;4941413;29;20447;-77
2023/04/30 09:29:18;;;;;;;3.27;2.67;;;27.70;44.80;;;;;;4949823;29;20418;-78
2023/04/30 09:31:46;;;;;;;2.90;2.70;;;27.80;43.70;;;;;;4938175;29;20441;-77
2023/04/30 09:34:14;;;;;;;4.57;2.50;;;27.90;43.40;;;;;;4943747;29;20435;-74
2023/04/30 09:36:52;;;;;;;4.50;3.10;;;28.00;43.60;;;;;;4941961;29;20426;-75
2023/04/30 09:39:20;;;;;;;2.50;2.30;;;28.20;43.30;;;;;;4952313;28;20454;-77
2023/04/30 09:41:50;;;;;;;3.20;2.30;;;28.20;43.20;;;;;;4946857;29;20478;-76
2023/04/30 09:44:28;;;;;;;4.20;2.73;;;28.40;43.30;;;;;;4948928;29;20482;-78
2023/04/30 09:46:56;;;;;;;4.67;2.67;;;28.60;43.10;;;;;;4940927;29;20462;-74
2023/04/30 09:49:24;;;;;;;6.13;2.93;;;28.80;43.00;;;;;;4937561;29;20448;-75
2023/04/30 09:51:56;;;;;;;3.13;2.67;;;29.00;42.80;;;;;;4933852;29;20463;-77
2023/04/30 09:54:25;;;;;;;6.83;2.90;;;29.20;42.60;;;;;;4949343;29;20414;-77
2023/04/30 09:56:54;;;;;;;4.27;2.60;;;29.40;42.30;;;;;;4953001;28;20439;-76
2023/04/30 09:59:23;;;;;;;6.87;2.50;;;29.70;42.20;;;;;;4952177;29;20414;-77
2023/04/30 10:01:51;;;;;;;2.60;2.40;;;29.80;41.90;;;;;;4952785;29;20459;-78
2023/04/30 10:04:19;;;;;;;4.47;2.70;;;30.00;41.70;;;;;;4952168;29;20479;-75
2023/04/30 10:06:47;;;;;;;5.10;2.53;;;30.20;41.60;;;;;;4939707;29;20499;-74
2023/04/30 10:09:16;;;;;;;4.30;2.63;;;30.50;41.50;;;;;;4933997;29;20543;-78
2023/04/30 10:11:45;;;;;;;7.70;3.00;;;30.60;41.20;;;;;;4933646;29;20467;-76
2023/04/30 10:14:15;;;;;;;6.00;2.63;;;30.80;40.90;;;;;;4944521;29;20427;-78
2023/04/30 10:16:44;;;;;;;5.00;2.50;;;31.00;40.70;;;;;;4950286;29;20455;-77
2023/04/30 10:19:14;;;;;;;4.27;2.53;;;31.20;40.50;;;;;;4942756;29;20524;-77
2023/04/30 10:21:42;;;;;;;2.97;2.47;;;31.40;40.30;;;;;;4934455;29;20486;-76
2023/04/30 10:24:13;;;;;;;4.27;2.40;;;31.60;40.10;;;;;;4950190;29;20479;-77
2023/04/30 10:26:42;;;;;;;14.40;3.30;;;31.80;39.80;;;;;;4942824;29;20458;-77
2023/04/30 10:29:10;;;;;;;2.40;2.20;;;32.00;39.70;;;;;;4951175;29;20443;-77
2023/04/30 10:31:40;;;;;;;6.53;2.60;;;32.10;39.40;;;;;;4951722;29;20466;-76
2023/04/30 10:34:14;;;;;;;3.53;2.53;;;32.30;39.20;;;;;;4952485;29;20530;-76
2023/04/30 10:36:44;;;;;;;5.63;2.40;;;32.50;39.10;;;;;;4949276;29;20452;-76
2023/04/30 10:39:12;;;;;;;6.73;2.53;;;32.70;38.80;;;;;;4947498;29;20450;-74
2023/04/30 10:41:40;;;;;;;3.23;2.57;;;32.90;38.60;;;;;;4945189;29;20561;-76
2023/04/30 10:44:08;;;;;;;2.53;2.30;;;33.10;38.40;;;;;;4933054;29;20482;-77
2023/04/30 10:46:38;;;;;;;3.17;2.57;;;33.40;38.20;;;;;;4938274;29;20454;-77
2023/04/30 10:49:06;;;;;;;2.53;2.27;;;33.60;37.90;;;;;;4939335;29;20444;-77
2023/04/30 10:51:45;;;;;;;2.70;2.50;;;33.80;37.60;;;;;;4933407;29;20478;-76
2023/04/30 10:54:16;;;;;;;5.50;2.60;;;34.10;37.20;;;;;;4933369;29;20452;-77
2023/04/30 10:56:45;;;;;;;2.70;2.50;;;34.30;37.00;;;;;;4952142;28;20450;-77
2023/04/30 10:59:14;;;;;;;5.23;2.70;;;34.50;36.80;;;;;;4947398;28;20456;-78
2023/04/30 11:01:57;;;;;;;5.53;2.60;;;34.70;36.40;;;;;;4939642;29;20483;-76
2023/04/30 11:04:25;;;;;;;2.97;2.37;;;34.90;36.10;;;;;;4939904;28;20562;-77
2023/04/30 11:07:02;;;;;;;3.10;2.60;;;35.10;36.00;;;;;;4945889;29;20488;-77
2023/04/30 11:09:41;;;;;;;4.60;2.93;;;35.30;35.70;;;;;;4947907;29;20447;-77
2023/04/30 11:12:11;;;;;;;5.80;2.77;;;35.50;35.50;;;;;;4955730;29;20462;-77
2023/04/30 11:14:43;;;;;;;3.67;2.70;;;36.10;35.00;;;;;;4952288;29;20459;-78
2023/04/30 11:17:21;;;;;;;5.70;2.30;;;37.30;33.50;;;;;;4956106;29;20451;-79
2023/04/30 11:19:50;;;;;;;4.47;2.33;;;37.30;27.80;;;;;;4945287;29;20452;-76
2023/04/30 11:22:23;;;;;;;4.13;1.93;;;37.40;28.00;;;;;;4949288;29;20478;-77
2023/04/30 11:25:00;;;;;;;3.47;1.90;;;37.00;27.30;;;;;;4936897;29;20479;-77
2023/04/30 11:27:29;;;;;;;3.10;2.03;;;36.70;28.40;;;;;;4953223;29;20447;-77
2023/04/30 11:29:58;;;;;;;3.87;2.00;;;37.20;27.80;;;;;;4947625;29;20530;-77
2023/04/30 11:32:31;;;;;;;7.20;2.37;;;37.70;27.40;;;;;;4951182;29;20474;-76
2023/04/30 11:35:00;;;;;;;4.70;2.10;;;38.30;27.00;;;;;;4937749;29;20450;-73
2023/04/30 11:37:31;;;;;;;7.07;2.43;;;38.90;26.60;;;;;;4954784;29;20459;-75
2023/04/30 11:40:00;;;;;;;4.40;1.90;;;39.30;26.10;;;;;;4951786;29;20514;-77
2023/04/30 11:42:30;;;;;;;7.13;2.37;;;39.70;25.60;;;;;;4946702;29;20478;-75
2023/04/30 11:45:04;;;;;;;2.27;1.93;;;40.10;25.30;;;;;;4952895;29;20479;-77
2023/04/30 11:47:44;;;;;;;2.80;1.80;;;40.40;25.00;;;;;;4952012;29;20981;-75
2023/04/30 11:50:12;;;;;;;3.63;2.23;;;40.50;24.70;;;;;;4952722;29;20570;-76
2023/04/30 11:52:41;;;;;;;4.87;1.80;;;40.90;24.70;;;;;;4954812;29;20944;-76
2023/04/30 11:55:13;;;;;;;1.97;1.67;;;41.20;24.20;;;;;;4942532;28;20454;-73
2023/04/30 11:57:43;;;;;;;2.60;1.53;;;41.30;23.90;;;;;;4938145;29;20459;-77
2023/04/30 12:00:12;;;;;;;5.13;1.87;;;41.50;23.70;;;;;;4942028;28;20443;-76
2023/04/30 12:02:40;;;;;;;5.40;1.60;;;41.70;23.50;;;;;;4953997;29;20465;-77
2023/04/30 12:05:17;;;;;;;7.00;1.50;;;41.90;23.60;;;;;;4949791;29;20506;-74
2023/04/30 12:07:46;;;;;;;5.03;1.87;;;41.90;23.90;;;;;;4952996;29;20450;-77
2023/04/30 12:10:14;;;;;;;4.40;1.60;;;42.00;23.40;;;;;;4939776;28;20971;-77
2023/04/30 12:12:43;;;;;;;1.70;1.60;;;42.20;23.10;;;;;;4952331;29;20459;-77
2023/04/30 12:15:12;;;;;;;2.70;1.83;;;42.30;23.20;;;;;;4941166;29;20848;-79
2023/04/30 12:17:40;;;;;;;5.77;1.90;;;42.20;23.00;;;;;;4952216;29;20435;-80
2023/04/30 12:20:09;;;;;;;1.87;1.50;;;42.20;23.10;;;;;;4937463;28;20828;-81
2023/04/30 12:22:39;;;;;;;2.00;1.47;;;42.40;23.20;;;;;;4952314;29;20471;-75
2023/04/30 12:25:08;;;;;;;5.10;2.07;;;42.50;23.30;;;;;;4941113;29;20472;-76
2023/04/30 12:27:37;;;;;;;6.20;2.10;;;42.70;22.80;;;;;;4939520;28;20461;-76
2023/04/30 12:30:08;;;;;;;5.80;1.97;;;42.70;21.80;;;;;;4954117;28;20465;-76
2023/04/30 12:32:40;;;;;;;5.67;1.90;;;42.60;21.20;;;;;;4953895;29;20461;-76
2023/04/30 12:35:09;;;;;;;2.40;1.70;;;42.60;21.10;;;;;;4954406;28;20434;-77
2023/04/30 12:37:42;;;;;;;6.23;1.80;;;42.40;20.20;;;;;;4944729;28;20435;-75
2023/04/30 12:40:10;;;;;;;9.03;2.07;;;42.20;20.50;;;;;;4949769;29;20450;-76
2023/04/30 12:42:38;;;;;;;2.90;1.47;;;42.10;20.10;;;;;;4952514;28;20474;-75
2023/04/30 12:45:08;;;;;;;10.77;1.87;;;42.30;20.30;;;;;;4935347;29;20563;-78
2023/04/30 12:47:39;;;;;;;4.20;1.70;;;42.20;20.90;;;;;;4934901;29;20442;-73
2023/04/30 12:50:10;;;;;;;3.73;1.50;;;42.10;21.30;;;;;;4934642;29;20487;-77
2023/04/30 12:52:40;;;;;;;5.60;1.60;;;42.30;21.40;;;;;;4934856;29;20468;-74
2023/04/30 12:55:17;;;;;;;2.93;1.73;;;42.20;21.50;;;;;;4939179;28;20603;-76